sensor_id;sensor_type;location;lat;lon;timestamp;P1;durP1;ratioP1;P2;durP2;ratioP2
57309;SDS011;43153;50.984;18.204;2023-03-13T00:01:11;10.70;;;3.80;;
57309;SDS011;43153;50.984;18.204;2023-03-13T00:03:37;12.50;;;4.10;;
57309;SDS011;43153;50.984;18.204;2023-03-13T00:06:11;11.60;;;3.30;;
57309;SDS011;43153;50.984;18.204;2023-03-13T00:08:37;13.30;;;5.00;;
57309;SDS011;43153;50.984;18.204;2023-03-13T00:11:05;12.00;;;4.30;;
57309;SDS011;43153;50.984;18.204;2023-03-13T00:13:34;12.00;;;4.80;;
57309;SDS011;43153;50.984;18.204;2023-03-13T00:16:01;14.90;;;5.00;;
57309;SDS011;43153;50.984;18.204;2023-03-13T00:18:27;11.70;;;3.70;;
57309;SDS011;43153;50.984;18.204;2023-03-13T00:20:57;11.10;;;3.50;;
57309;SDS011;43153;50.984;18.204;2023-03-13T00:23:27;11.40;;;4.40;;
57309;SDS011;43153;50.984;18.204;2023-03-13T00:26:01;8.90;;;3.50;;
57309;SDS011;43153;50.984;18.204;2023-03-13T00:28:35;10.10;;;3.40;;
57309;SDS011;43153;50.984;18.204;2023-03-13T00:31:16;11.20;;;3.50;;
57309;SDS011;43153;50.984;18.204;2023-03-13T00:33:45;9.60;;;3.30;;
57309;SDS011;43153;50.984;18.204;2023-03-13T00:36:21;12.80;;;3.70;;
57309;SDS011;43153;50.984;18.204;2023-03-13T00:38:50;13.90;;;3.60;;
57309;SDS011;43153;50.984;18.204;2023-03-13T00:41:22;12.10;;;4.00;;
57309;SDS011;43153;50.984;18.204;2023-03-13T00:43:56;12.30;;;4.00;;
57309;SDS011;43153;50.984;18.204;2023-03-13T00:46:25;11.80;;;3.60;;
57309;SDS011;43153;50.984;18.204;2023-03-13T00:48:53;10.10;;;2.90;;
57309;SDS011;43153;50.984;18.204;2023-03-13T00:51:19;11.20;;;3.80;;
57309;SDS011;43153;50.984;18.204;2023-03-13T00:53:57;11.00;;;3.50;;
57309;SDS011;43153;50.984;18.204;2023-03-13T00:56:29;10.20;;;3.00;;
57309;SDS011;43153;50.984;18.204;2023-03-13T00:58:58;10.30;;;3.30;;
57309;SDS011;43153;50.984;18.204;2023-03-13T01:01:28;11.00;;;3.50;;
57309;SDS011;43153;50.984;18.204;2023-03-13T01:03:59;14.20;;;4.50;;
57309;SDS011;43153;50.984;18.204;2023-03-13T01:06:30;20.10;;;6.00;;
57309;SDS011;43153;50.984;18.204;2023-03-13T01:09:00;15.90;;;4.60;;
57309;SDS011;43153;50.984;18.204;2023-03-13T01:11:29;9.50;;;3.20;;
57309;SDS011;43153;50.984;18.204;2023-03-13T01:14:02;8.80;;;3.30;;
57309;SDS011;43153;50.984;18.204;2023-03-13T01:16:31;14.50;;;3.90;;
57309;SDS011;43153;50.984;18.204;2023-03-13T01:19:00;15.60;;;4.80;;
57309;SDS011;43153;50.984;18.204;2023-03-13T01:21:34;12.00;;;4.40;;
57309;SDS011;43153;50.984;18.204;2023-03-13T01:24:00;18.00;;;4.80;;
57309;SDS011;43153;50.984;18.204;2023-03-13T01:26:30;18.00;;;5.60;;
57309;SDS011;43153;50.984;18.204;2023-03-13T01:28:56;13.50;;;4.90;;
57309;SDS011;43153;50.984;18.204;2023-03-13T01:31:33;15.20;;;5.30;;
57309;SDS011;43153;50.984;18.204;2023-03-13T01:34:01;15.20;;;4.80;;
57309;SDS011;43153;50.984;18.204;2023-03-13T01:36:34;17.60;;;5.90;;
57309;SDS011;43153;50.984;18.204;2023-03-13T01:39:01;17.50;;;5.40;;
57309;SDS011;43153;50.984;18.204;2023-03-13T01:41:30;15.90;;;4.70;;
57309;SDS011;43153;50.984;18.204;2023-03-13T01:43:59;9.20;;;4.00;;
57309;SDS011;43153;50.984;18.204;2023-03-13T01:46:26;12.50;;;3.90;;
57309;SDS011;43153;50.984;18.204;2023-03-13T01:51:48;11.10;;;3.60;;
57309;SDS011;43153;50.984;18.204;2023-03-13T01:54:24;11.80;;;3.20;;
57309;SDS011;43153;50.984;18.204;2023-03-13T01:56:57;10.50;;;3.50;;
57309;SDS011;43153;50.984;18.204;2023-03-13T01:59:31;9.40;;;3.70;;
57309;SDS011;43153;50.984;18.204;2023-03-13T02:02:02;8.90;;;3.20;;
57309;SDS011;43153;50.984;18.204;2023-03-13T02:04:40;11.70;;;3.60;;
57309;SDS011;43153;50.984;18.204;2023-03-13T02:07:19;12.50;;;3.40;;
57309;SDS011;43153;50.984;18.204;2023-03-13T02:09:51;9.20;;;3.20;;
57309;SDS011;43153;50.984;18.204;2023-03-13T02:12:23;8.10;;;3.20;;
57309;SDS011;43153;50.984;18.204;2023-03-13T02:15:01;10.40;;;3.80;;
57309;SDS011;43153;50.984;18.204;2023-03-13T02:17:37;12.10;;;3.80;;
57309;SDS011;43153;50.984;18.204;2023-03-13T02:20:04;12.50;;;4.00;;
57309;SDS011;43153;50.984;18.204;2023-03-13T03:02:19;10.00;;;3.50;;
57309;SDS011;43153;50.984;18.204;2023-03-13T03:04:48;11.40;;;3.40;;
57309;SDS011;43153;50.984;18.204;2023-03-13T03:07:21;10.00;;;2.70;;
57309;SDS011;43153;50.984;18.204;2023-03-13T03:09:49;10.30;;;3.60;;
57309;SDS011;43153;50.984;18.204;2023-03-13T03:12:16;8.90;;;3.10;;
57309;SDS011;43153;50.984;18.204;2023-03-13T03:14:44;9.00;;;3.20;;
57309;SDS011;43153;50.984;18.204;2023-03-13T03:17:11;7.70;;;3.10;;
57309;SDS011;43153;50.984;18.204;2023-03-13T03:19:41;9.70;;;3.10;;
57309;SDS011;43153;50.984;18.204;2023-03-13T03:22:11;9.70;;;3.00;;
57309;SDS011;43153;50.984;18.204;2023-03-13T03:24:38;10.40;;;3.70;;
57309;SDS011;43153;50.984;18.204;2023-03-13T03:27:08;9.40;;;3.80;;
57309;SDS011;43153;50.984;18.204;2023-03-13T03:29:35;8.90;;;3.70;;
57309;SDS011;43153;50.984;18.204;2023-03-13T03:32:04;9.40;;;3.80;;
57309;SDS011;43153;50.984;18.204;2023-03-13T03:34:34;12.50;;;3.50;;
57309;SDS011;43153;50.984;18.204;2023-03-13T03:37:00;9.80;;;3.80;;
57309;SDS011;43153;50.984;18.204;2023-03-13T03:39:34;9.20;;;3.60;;
57309;SDS011;43153;50.984;18.204;2023-03-13T03:42:01;7.00;;;3.30;;
57309;SDS011;43153;50.984;18.204;2023-03-13T03:44:30;9.40;;;4.10;;
57309;SDS011;43153;50.984;18.204;2023-03-13T03:46:59;12.40;;;4.80;;
57309;SDS011;43153;50.984;18.204;2023-03-13T03:49:32;10.20;;;4.10;;
57309;SDS011;43153;50.984;18.204;2023-03-13T03:51:59;8.40;;;3.60;;
57309;SDS011;43153;50.984;18.204;2023-03-13T03:54:31;9.00;;;3.90;;
57309;SDS011;43153;50.984;18.204;2023-03-13T03:56:59;11.10;;;3.90;;
57309;SDS011;43153;50.984;18.204;2023-03-13T03:59:27;8.90;;;4.00;;
57309;SDS011;43153;50.984;18.204;2023-03-13T04:01:56;8.30;;;3.40;;
57309;SDS011;43153;50.984;18.204;2023-03-13T04:04:23;10.80;;;4.30;;
57309;SDS011;43153;50.984;18.204;2023-03-13T04:06:51;9.60;;;4.30;;
57309;SDS011;43153;50.984;18.204;2023-03-13T04:09:16;11.80;;;4.40;;
57309;SDS011;43153;50.984;18.204;2023-03-13T04:11:42;9.60;;;4.20;;
57309;SDS011;43153;50.984;18.204;2023-03-13T04:14:12;9.00;;;4.20;;
57309;SDS011;43153;50.984;18.204;2023-03-13T04:16:41;12.00;;;4.10;;
57309;SDS011;43153;50.984;18.204;2023-03-13T04:19:10;12.70;;;4.70;;
57309;SDS011;43153;50.984;18.204;2023-03-13T04:21:41;11.40;;;5.10;;
57309;SDS011;43153;50.984;18.204;2023-03-13T04:24:12;8.20;;;4.00;;
57309;SDS011;43153;50.984;18.204;2023-03-13T04:26:39;13.90;;;4.50;;
57309;SDS011;43153;50.984;18.204;2023-03-13T04:29:05;12.60;;;4.50;;
57309;SDS011;43153;50.984;18.204;2023-03-13T04:31:31;10.50;;;4.20;;
57309;SDS011;43153;50.984;18.204;2023-03-13T04:33:58;11.70;;;4.50;;
57309;SDS011;43153;50.984;18.204;2023-03-13T04:36:31;9.90;;;4.20;;
57309;SDS011;43153;50.984;18.204;2023-03-13T04:39:08;10.20;;;4.00;;
57309;SDS011;43153;50.984;18.204;2023-03-13T04:41:40;10.50;;;4.50;;
57309;SDS011;43153;50.984;18.204;2023-03-13T04:44:10;11.40;;;4.60;;
57309;SDS011;43153;50.984;18.204;2023-03-13T04:46:36;10.70;;;4.70;;
57309;SDS011;43153;50.984;18.204;2023-03-13T04:49:02;12.00;;;5.20;;
57309;SDS011;43153;50.984;18.204;2023-03-13T04:51:28;11.80;;;5.70;;
57309;SDS011;43153;50.984;18.204;2023-03-13T04:54:00;17.50;;;5.40;;
57309;SDS011;43153;50.984;18.204;2023-03-13T04:56:29;17.60;;;7.10;;
57309;SDS011;43153;50.984;18.204;2023-03-13T04:58:55;18.10;;;6.30;;
57309;SDS011;43153;50.984;18.204;2023-03-13T05:01:23;11.80;;;4.50;;
57309;SDS011;43153;50.984;18.204;2023-03-13T05:03:54;12.50;;;4.00;;
57309;SDS011;43153;50.984;18.204;2023-03-13T05:06:21;11.20;;;4.40;;
57309;SDS011;43153;50.984;18.204;2023-03-13T05:08:48;9.40;;;3.70;;
57309;SDS011;43153;50.984;18.204;2023-03-13T05:11:18;12.10;;;4.60;;
57309;SDS011;43153;50.984;18.204;2023-03-13T05:13:49;12.10;;;4.30;;
57309;SDS011;43153;50.984;18.204;2023-03-13T05:16:23;12.00;;;5.10;;
57309;SDS011;43153;50.984;18.204;2023-03-13T05:19:03;14.10;;;4.50;;
57309;SDS011;43153;50.984;18.204;2023-03-13T05:21:29;10.50;;;4.00;;
57309;SDS011;43153;50.984;18.204;2023-03-13T05:23:55;10.00;;;4.90;;
57309;SDS011;43153;50.984;18.204;2023-03-13T05:26:26;14.80;;;6.30;;
57309;SDS011;43153;50.984;18.204;2023-03-13T05:28:56;18.60;;;7.50;;
57309;SDS011;43153;50.984;18.204;2023-03-13T05:31:25;22.00;;;9.30;;
57309;SDS011;43153;50.984;18.204;2023-03-13T05:33:51;22.20;;;10.10;;
57309;SDS011;43153;50.984;18.204;2023-03-13T05:36:23;23.10;;;10.00;;
57309;SDS011;43153;50.984;18.204;2023-03-13T05:38:50;14.90;;;5.70;;
57309;SDS011;43153;50.984;18.204;2023-03-13T05:41:16;14.10;;;6.10;;
57309;SDS011;43153;50.984;18.204;2023-03-13T05:43:44;13.10;;;5.30;;
57309;SDS011;43153;50.984;18.204;2023-03-13T05:46:14;12.30;;;4.80;;
57309;SDS011;43153;50.984;18.204;2023-03-13T05:48:45;9.60;;;3.70;;
57309;SDS011;43153;50.984;18.204;2023-03-13T05:51:12;9.90;;;5.00;;
57309;SDS011;43153;50.984;18.204;2023-03-13T05:53:42;12.30;;;4.80;;
57309;SDS011;43153;50.984;18.204;2023-03-13T05:56:12;13.50;;;4.10;;
57309;SDS011;43153;50.984;18.204;2023-03-13T05:58:43;16.20;;;4.70;;
57309;SDS011;43153;50.984;18.204;2023-03-13T06:01:10;12.00;;;4.30;;
57309;SDS011;43153;50.984;18.204;2023-03-13T06:03:37;9.40;;;4.10;;
57309;SDS011;43153;50.984;18.204;2023-03-13T06:06:12;11.80;;;4.90;;
57309;SDS011;43153;50.984;18.204;2023-03-13T06:08:38;14.30;;;6.00;;
57309;SDS011;43153;50.984;18.204;2023-03-13T06:11:31;14.80;;;6.10;;
57309;SDS011;43153;50.984;18.204;2023-03-13T06:14:02;11.60;;;5.50;;
57309;SDS011;43153;50.984;18.204;2023-03-13T06:16:29;12.90;;;5.10;;
57309;SDS011;43153;50.984;18.204;2023-03-13T06:18:57;13.70;;;6.00;;
57309;SDS011;43153;50.984;18.204;2023-03-13T06:21:26;18.00;;;6.50;;
57309;SDS011;43153;50.984;18.204;2023-03-13T06:23:53;15.40;;;6.70;;
57309;SDS011;43153;50.984;18.204;2023-03-13T06:26:27;18.10;;;7.30;;
57309;SDS011;43153;50.984;18.204;2023-03-13T06:28:55;14.70;;;5.70;;
57309;SDS011;43153;50.984;18.204;2023-03-13T06:31:30;17.60;;;6.60;;
57309;SDS011;43153;50.984;18.204;2023-03-13T06:34:00;14.10;;;5.40;;
57309;SDS011;43153;50.984;18.204;2023-03-13T06:36:26;15.80;;;6.00;;
57309;SDS011;43153;50.984;18.204;2023-03-13T06:38:52;17.30;;;5.10;;
57309;SDS011;43153;50.984;18.204;2023-03-13T06:41:19;11.60;;;4.90;;
57309;SDS011;43153;50.984;18.204;2023-03-13T06:43:52;12.60;;;4.90;;
57309;SDS011;43153;50.984;18.204;2023-03-13T06:46:25;10.30;;;4.90;;
57309;SDS011;43153;50.984;18.204;2023-03-13T06:48:56;11.80;;;4.40;;
57309;SDS011;43153;50.984;18.204;2023-03-13T06:51:59;14.60;;;4.20;;
57309;SDS011;43153;50.984;18.204;2023-03-13T06:54:29;13.10;;;5.60;;
57309;SDS011;43153;50.984;18.204;2023-03-13T06:56:55;15.70;;;4.50;;
57309;SDS011;43153;50.984;18.204;2023-03-13T06:59:27;16.30;;;4.60;;
57309;SDS011;43153;50.984;18.204;2023-03-13T07:01:54;14.50;;;4.10;;
57309;SDS011;43153;50.984;18.204;2023-03-13T07:04:34;16.20;;;4.90;;
57309;SDS011;43153;50.984;18.204;2023-03-13T07:07:15;13.00;;;4.60;;
57309;SDS011;43153;50.984;18.204;2023-03-13T07:10:58;19.10;;;5.20;;
57309;SDS011;43153;50.984;18.204;2023-03-13T07:13:32;11.40;;;4.80;;
57309;SDS011;43153;50.984;18.204;2023-03-13T07:16:04;13.90;;;5.10;;
57309;SDS011;43153;50.984;18.204;2023-03-13T07:18:35;14.70;;;4.90;;
57309;SDS011;43153;50.984;18.204;2023-03-13T07:21:03;14.10;;;4.80;;
57309;SDS011;43153;50.984;18.204;2023-03-13T07:26:27;12.80;;;5.30;;
57309;SDS011;43153;50.984;18.204;2023-03-13T07:28:55;10.60;;;4.60;;
57309;SDS011;43153;50.984;18.204;2023-03-13T07:31:26;12.20;;;4.00;;
57309;SDS011;43153;50.984;18.204;2023-03-13T07:34:05;16.20;;;5.00;;
57309;SDS011;43153;50.984;18.204;2023-03-13T07:36:32;18.50;;;4.70;;
57309;SDS011;43153;50.984;18.204;2023-03-13T07:39:14;14.90;;;4.80;;
57309;SDS011;43153;50.984;18.204;2023-03-13T07:41:48;11.90;;;4.00;;
57309;SDS011;43153;50.984;18.204;2023-03-13T07:44:17;10.20;;;3.90;;
57309;SDS011;43153;50.984;18.204;2023-03-13T07:46:48;11.70;;;4.40;;
57309;SDS011;43153;50.984;18.204;2023-03-13T07:49:26;12.50;;;4.70;;
57309;SDS011;43153;50.984;18.204;2023-03-13T07:51:59;11.70;;;4.00;;
57309;SDS011;43153;50.984;18.204;2023-03-13T07:54:27;14.80;;;4.30;;
57309;SDS011;43153;50.984;18.204;2023-03-13T07:56:55;12.40;;;4.10;;
57309;SDS011;43153;50.984;18.204;2023-03-13T07:59:21;14.90;;;4.40;;
57309;SDS011;43153;50.984;18.204;2023-03-13T08:01:52;18.80;;;4.30;;
57309;SDS011;43153;50.984;18.204;2023-03-13T08:06:54;10.50;;;3.80;;
57309;SDS011;43153;50.984;18.204;2023-03-13T08:09:23;10.40;;;3.50;;
57309;SDS011;43153;50.984;18.204;2023-03-13T08:11:54;13.90;;;4.50;;
57309;SDS011;43153;50.984;18.204;2023-03-13T08:14:26;12.20;;;3.90;;
57309;SDS011;43153;50.984;18.204;2023-03-13T08:16:53;15.10;;;4.70;;
57309;SDS011;43153;50.984;18.204;2023-03-13T08:19:46;10.60;;;3.50;;
57309;SDS011;43153;50.984;18.204;2023-03-13T08:22:16;12.50;;;3.70;;
57309;SDS011;43153;50.984;18.204;2023-03-13T08:24:42;13.80;;;3.70;;
57309;SDS011;43153;50.984;18.204;2023-03-13T08:29:41;13.00;;;3.90;;
57309;SDS011;43153;50.984;18.204;2023-03-13T08:32:07;14.10;;;3.80;;
57309;SDS011;43153;50.984;18.204;2023-03-13T08:34:48;8.90;;;3.50;;
57309;SDS011;43153;50.984;18.204;2023-03-13T08:37:25;15.20;;;4.30;;
57309;SDS011;43153;50.984;18.204;2023-03-13T08:39:52;10.80;;;3.10;;
57309;SDS011;43153;50.984;18.204;2023-03-13T08:42:21;17.10;;;3.90;;
57309;SDS011;43153;50.984;18.204;2023-03-13T08:44:48;16.10;;;3.50;;
57309;SDS011;43153;50.984;18.204;2023-03-13T08:47:15;13.10;;;3.10;;
57309;SDS011;43153;50.984;18.204;2023-03-13T08:49:42;8.20;;;2.90;;
57309;SDS011;43153;50.984;18.204;2023-03-13T09:32:10;9.20;;;2.90;;
57309;SDS011;43153;50.984;18.204;2023-03-13T09:34:46;14.90;;;3.80;;
57309;SDS011;43153;50.984;18.204;2023-03-13T09:37:13;8.90;;;2.70;;
57309;SDS011;43153;50.984;18.204;2023-03-13T09:39:40;13.00;;;3.20;;
57309;SDS011;43153;50.984;18.204;2023-03-13T09:42:13;8.80;;;2.90;;
57309;SDS011;43153;50.984;18.204;2023-03-13T09:47:32;10.00;;;2.30;;
57309;SDS011;43153;50.984;18.204;2023-03-13T09:50:39;9.40;;;2.80;;
57309;SDS011;43153;50.984;18.204;2023-03-13T09:53:13;8.60;;;2.60;;
57309;SDS011;43153;50.984;18.204;2023-03-13T09:55:42;9.30;;;2.70;;
57309;SDS011;43153;50.984;18.204;2023-03-13T09:58:18;8.20;;;2.90;;
57309;SDS011;43153;50.984;18.204;2023-03-13T10:00:51;13.00;;;3.50;;
57309;SDS011;43153;50.984;18.204;2023-03-13T10:03:21;10.30;;;3.00;;
57309;SDS011;43153;50.984;18.204;2023-03-13T10:05:51;12.20;;;3.30;;
57309;SDS011;43153;50.984;18.204;2023-03-13T10:08:19;11.50;;;3.50;;
57309;SDS011;43153;50.984;18.204;2023-03-13T10:13:48;8.00;;;2.90;;
57309;SDS011;43153;50.984;18.204;2023-03-13T10:16:42;8.30;;;2.10;;
57309;SDS011;43153;50.984;18.204;2023-03-13T10:19:16;11.50;;;2.80;;
57309;SDS011;43153;50.984;18.204;2023-03-13T10:21:51;8.50;;;2.50;;
57309;SDS011;43153;50.984;18.204;2023-03-13T10:24:39;12.40;;;3.30;;
57309;SDS011;43153;50.984;18.204;2023-03-13T10:27:13;10.30;;;2.80;;
57309;SDS011;43153;50.984;18.204;2023-03-13T10:29:40;11.20;;;2.90;;
57309;SDS011;43153;50.984;18.204;2023-03-13T10:32:07;16.90;;;4.00;;
57309;SDS011;43153;50.984;18.204;2023-03-13T10:37:32;10.90;;;3.00;;
57309;SDS011;43153;50.984;18.204;2023-03-13T10:40:14;12.20;;;3.10;;
57309;SDS011;43153;50.984;18.204;2023-03-13T10:45:41;10.40;;;2.50;;
57309;SDS011;43153;50.984;18.204;2023-03-13T10:48:13;7.80;;;2.20;;
57309;SDS011;43153;50.984;18.204;2023-03-13T10:50:48;14.00;;;2.40;;
57309;SDS011;43153;50.984;18.204;2023-03-13T10:56:04;13.60;;;2.70;;
57309;SDS011;43153;50.984;18.204;2023-03-13T11:03:40;11.60;;;2.80;;
57309;SDS011;43153;50.984;18.204;2023-03-13T11:06:21;15.50;;;2.90;;
57309;SDS011;43153;50.984;18.204;2023-03-13T11:11:53;14.80;;;3.10;;
57309;SDS011;43153;50.984;18.204;2023-03-13T11:14:28;10.30;;;2.70;;
57309;SDS011;43153;50.984;18.204;2023-03-13T11:17:09;8.20;;;2.30;;
57309;SDS011;43153;50.984;18.204;2023-03-13T11:22:49;11.10;;;2.40;;
57309;SDS011;43153;50.984;18.204;2023-03-13T11:33:21;11.30;;;3.30;;
57309;SDS011;43153;50.984;18.204;2023-03-13T11:52:48;12.50;;;3.20;;
57309;SDS011;43153;50.984;18.204;2023-03-13T11:55:53;11.80;;;2.60;;
57309;SDS011;43153;50.984;18.204;2023-03-13T12:01:42;12.90;;;3.30;;
57309;SDS011;43153;50.984;18.204;2023-03-13T12:04:35;11.00;;;2.20;;
57309;SDS011;43153;50.984;18.204;2023-03-13T12:07:06;11.00;;;2.50;;
57309;SDS011;43153;50.984;18.204;2023-03-13T12:09:51;8.90;;;2.60;;
57309;SDS011;43153;50.984;18.204;2023-03-13T12:12:35;11.40;;;2.80;;
57309;SDS011;43153;50.984;18.204;2023-03-13T12:17:45;13.10;;;2.90;;
57309;SDS011;43153;50.984;18.204;2023-03-13T12:36:39;12.80;;;2.50;;
57309;SDS011;43153;50.984;18.204;2023-03-13T12:42:12;9.30;;;2.40;;
57309;SDS011;43153;50.984;18.204;2023-03-13T12:44:45;10.40;;;2.80;;
57309;SDS011;43153;50.984;18.204;2023-03-13T12:47:21;13.30;;;2.10;;
57309;SDS011;43153;50.984;18.204;2023-03-13T12:50:06;12.10;;;2.60;;
57309;SDS011;43153;50.984;18.204;2023-03-13T12:53:09;11.30;;;2.70;;
57309;SDS011;43153;50.984;18.204;2023-03-13T12:58:51;12.70;;;2.30;;
57309;SDS011;43153;50.984;18.204;2023-03-13T13:01:26;8.50;;;2.10;;
57309;SDS011;43153;50.984;18.204;2023-03-13T13:04:43;10.30;;;2.50;;
57309;SDS011;43153;50.984;18.204;2023-03-13T13:07:26;7.80;;;1.90;;
57309;SDS011;43153;50.984;18.204;2023-03-13T13:16:14;10.60;;;2.30;;
57309;SDS011;43153;50.984;18.204;2023-03-13T13:18:47;11.50;;;2.30;;
57309;SDS011;43153;50.984;18.204;2023-03-13T13:23:43;7.90;;;2.00;;
57309;SDS011;43153;50.984;18.204;2023-03-13T13:28:52;10.80;;;2.50;;
57309;SDS011;43153;50.984;18.204;2023-03-13T13:39:46;12.20;;;2.50;;
57309;SDS011;43153;50.984;18.204;2023-03-13T13:45:02;10.50;;;2.10;;
57309;SDS011;43153;50.984;18.204;2023-03-13T13:47:44;10.50;;;2.00;;
57309;SDS011;43153;50.984;18.204;2023-03-13T13:50:29;11.90;;;2.20;;
57309;SDS011;43153;50.984;18.204;2023-03-13T13:55:59;9.50;;;3.40;;
57309;SDS011;43153;50.984;18.204;2023-03-13T14:04:34;9.00;;;2.30;;
57309;SDS011;43153;50.984;18.204;2023-03-13T14:07:02;12.50;;;2.20;;
57309;SDS011;43153;50.984;18.204;2023-03-13T14:12:30;7.50;;;2.00;;
57309;SDS011;43153;50.984;18.204;2023-03-13T14:17:46;12.90;;;3.00;;
57309;SDS011;43153;50.984;18.204;2023-03-13T14:20:23;9.20;;;2.20;;
57309;SDS011;43153;50.984;18.204;2023-03-13T14:22:53;11.30;;;2.40;;
57309;SDS011;43153;50.984;18.204;2023-03-13T14:25:23;12.60;;;2.60;;
57309;SDS011;43153;50.984;18.204;2023-03-13T14:27:54;9.90;;;2.50;;
57309;SDS011;43153;50.984;18.204;2023-03-13T14:30:41;9.70;;;2.60;;
57309;SDS011;43153;50.984;18.204;2023-03-13T14:33:13;9.00;;;2.40;;
57309;SDS011;43153;50.984;18.204;2023-03-13T14:35:39;9.60;;;2.20;;
57309;SDS011;43153;50.984;18.204;2023-03-13T14:38:06;7.30;;;2.20;;
57309;SDS011;43153;50.984;18.204;2023-03-13T14:40:41;10.10;;;2.40;;
57309;SDS011;43153;50.984;18.204;2023-03-13T14:43:16;18.20;;;7.00;;
57309;SDS011;43153;50.984;18.204;2023-03-13T14:46:00;12.30;;;4.00;;
57309;SDS011;43153;50.984;18.204;2023-03-13T14:48:54;9.70;;;1.90;;
57309;SDS011;43153;50.984;18.204;2023-03-13T14:51:28;11.80;;;2.50;;
57309;SDS011;43153;50.984;18.204;2023-03-13T14:56:35;7.70;;;1.90;;
57309;SDS011;43153;50.984;18.204;2023-03-13T14:59:16;8.80;;;2.30;;
57309;SDS011;43153;50.984;18.204;2023-03-13T15:01:56;8.80;;;2.20;;
57309;SDS011;43153;50.984;18.204;2023-03-13T15:07:20;7.60;;;2.40;;
57309;SDS011;43153;50.984;18.204;2023-03-13T15:09:48;11.50;;;2.80;;
57309;SDS011;43153;50.984;18.204;2023-03-13T15:12:21;7.80;;;2.60;;
57309;SDS011;43153;50.984;18.204;2023-03-13T15:14:52;8.50;;;2.20;;
57309;SDS011;43153;50.984;18.204;2023-03-13T15:19:49;9.10;;;2.70;;
57309;SDS011;43153;50.984;18.204;2023-03-13T16:02:28;10.00;;;4.30;;
57309;SDS011;43153;50.984;18.204;2023-03-13T16:04:58;14.70;;;4.20;;
57309;SDS011;43153;50.984;18.204;2023-03-13T16:07:26;7.60;;;3.40;;
57309;SDS011;43153;50.984;18.204;2023-03-13T16:09:56;14.80;;;4.40;;
57309;SDS011;43153;50.984;18.204;2023-03-13T16:12:30;13.30;;;4.50;;
57309;SDS011;43153;50.984;18.204;2023-03-13T16:15:01;13.30;;;4.40;;
57309;SDS011;43153;50.984;18.204;2023-03-13T16:17:29;9.90;;;4.00;;
57309;SDS011;43153;50.984;18.204;2023-03-13T16:19:57;10.80;;;4.60;;
57309;SDS011;43153;50.984;18.204;2023-03-13T16:22:57;11.20;;;3.80;;
57309;SDS011;43153;50.984;18.204;2023-03-13T16:25:30;12.50;;;3.80;;
57309;SDS011;43153;50.984;18.204;2023-03-13T16:28:00;11.30;;;4.90;;
57309;SDS011;43153;50.984;18.204;2023-03-13T16:30:29;12.30;;;4.50;;
57309;SDS011;43153;50.984;18.204;2023-03-13T16:32:59;9.50;;;3.60;;
57309;SDS011;43153;50.984;18.204;2023-03-13T16:35:28;12.00;;;4.50;;
57309;SDS011;43153;50.984;18.204;2023-03-13T16:37:54;14.50;;;5.30;;
57309;SDS011;43153;50.984;18.204;2023-03-13T16:40:32;16.80;;;5.80;;
57309;SDS011;43153;50.984;18.204;2023-03-13T16:42:59;13.20;;;5.30;;
57309;SDS011;43153;50.984;18.204;2023-03-13T16:45:26;10.90;;;4.20;;
57309;SDS011;43153;50.984;18.204;2023-03-13T16:47:54;10.10;;;4.10;;
57309;SDS011;43153;50.984;18.204;2023-03-13T16:50:22;10.20;;;4.70;;
57309;SDS011;43153;50.984;18.204;2023-03-13T16:52:50;13.60;;;5.10;;
57309;SDS011;43153;50.984;18.204;2023-03-13T16:55:18;15.50;;;5.30;;
57309;SDS011;43153;50.984;18.204;2023-03-13T16:57:53;10.40;;;4.20;;
57309;SDS011;43153;50.984;18.204;2023-03-13T17:00:44;19.70;;;6.50;;
57309;SDS011;43153;50.984;18.204;2023-03-13T17:03:12;14.10;;;7.10;;
57309;SDS011;43153;50.984;18.204;2023-03-13T17:05:54;14.80;;;6.00;;
57309;SDS011;43153;50.984;18.204;2023-03-13T17:08:30;14.40;;;5.80;;
57309;SDS011;43153;50.984;18.204;2023-03-13T17:11:15;13.90;;;4.70;;
57309;SDS011;43153;50.984;18.204;2023-03-13T17:13:49;17.70;;;6.80;;
57309;SDS011;43153;50.984;18.204;2023-03-13T17:16:22;16.20;;;7.30;;
57309;SDS011;43153;50.984;18.204;2023-03-13T17:18:49;17.50;;;7.70;;
57309;SDS011;43153;50.984;18.204;2023-03-13T17:21:27;19.10;;;6.90;;
57309;SDS011;43153;50.984;18.204;2023-03-13T17:23:59;14.90;;;6.80;;
57309;SDS011;43153;50.984;18.204;2023-03-13T17:26:33;15.00;;;5.80;;
57309;SDS011;43153;50.984;18.204;2023-03-13T17:29:03;15.50;;;5.90;;
57309;SDS011;43153;50.984;18.204;2023-03-13T17:31:31;15.20;;;5.80;;
57309;SDS011;43153;50.984;18.204;2023-03-13T17:34:05;12.40;;;4.60;;
57309;SDS011;43153;50.984;18.204;2023-03-13T17:36:33;14.50;;;5.20;;
57309;SDS011;43153;50.984;18.204;2023-03-13T17:39:00;12.10;;;4.50;;
57309;SDS011;43153;50.984;18.204;2023-03-13T17:41:35;12.10;;;4.60;;
57309;SDS011;43153;50.984;18.204;2023-03-13T17:44:03;12.80;;;5.00;;
57309;SDS011;43153;50.984;18.204;2023-03-13T17:46:42;8.70;;;4.00;;
57309;SDS011;43153;50.984;18.204;2023-03-13T17:49:12;14.00;;;4.40;;
57309;SDS011;43153;50.984;18.204;2023-03-13T17:51:41;12.70;;;4.40;;
57309;SDS011;43153;50.984;18.204;2023-03-13T17:54:12;10.70;;;4.10;;
57309;SDS011;43153;50.984;18.204;2023-03-13T18:01:43;11.70;;;4.70;;
57309;SDS011;43153;50.984;18.204;2023-03-13T18:04:11;12.40;;;4.20;;
57309;SDS011;43153;50.984;18.204;2023-03-13T18:06:39;8.40;;;3.30;;
57309;SDS011;43153;50.984;18.204;2023-03-13T18:09:17;8.70;;;3.20;;
57309;SDS011;43153;50.984;18.204;2023-03-13T18:11:46;11.50;;;3.70;;
57309;SDS011;43153;50.984;18.204;2023-03-13T18:14:13;9.20;;;3.30;;
57309;SDS011;43153;50.984;18.204;2023-03-13T18:16:46;10.70;;;3.40;;
57309;SDS011;43153;50.984;18.204;2023-03-13T18:19:22;9.20;;;3.30;;
57309;SDS011;43153;50.984;18.204;2023-03-13T18:21:52;9.50;;;3.30;;
57309;SDS011;43153;50.984;18.204;2023-03-13T18:24:21;13.20;;;4.10;;
57309;SDS011;43153;50.984;18.204;2023-03-13T18:26:48;12.60;;;4.40;;
57309;SDS011;43153;50.984;18.204;2023-03-13T18:29:25;12.40;;;4.60;;
57309;SDS011;43153;50.984;18.204;2023-03-13T18:31:52;10.60;;;3.60;;
57309;SDS011;43153;50.984;18.204;2023-03-13T18:34:20;13.10;;;4.30;;
57309;SDS011;43153;50.984;18.204;2023-03-13T18:36:48;9.30;;;3.60;;
57309;SDS011;43153;50.984;18.204;2023-03-13T18:39:15;14.60;;;4.20;;
57309;SDS011;43153;50.984;18.204;2023-03-13T18:41:47;14.00;;;4.50;;
57309;SDS011;43153;50.984;18.204;2023-03-13T18:44:24;16.40;;;5.80;;
57309;SDS011;43153;50.984;18.204;2023-03-13T18:46:51;16.00;;;5.50;;
57309;SDS011;43153;50.984;18.204;2023-03-13T18:49:21;15.00;;;5.30;;
57309;SDS011;43153;50.984;18.204;2023-03-13T18:51:53;14.30;;;5.10;;
57309;SDS011;43153;50.984;18.204;2023-03-13T18:54:25;15.80;;;4.40;;
57309;SDS011;43153;50.984;18.204;2023-03-13T18:56:56;10.00;;;4.10;;
57309;SDS011;43153;50.984;18.204;2023-03-13T18:59:22;11.80;;;3.90;;
57309;SDS011;43153;50.984;18.204;2023-03-13T19:01:49;10.40;;;4.10;;
57309;SDS011;43153;50.984;18.204;2023-03-13T19:04:15;8.90;;;3.50;;
57309;SDS011;43153;50.984;18.204;2023-03-13T19:06:43;12.30;;;3.80;;
57309;SDS011;43153;50.984;18.204;2023-03-13T19:09:12;11.40;;;3.10;;
57309;SDS011;43153;50.984;18.204;2023-03-13T19:11:45;11.90;;;4.50;;